sensor_id;sensor_type;location;lat;lon;timestamp;pressure;altitude;pressure_sealevel;temperature;humidity
55759;BME280;41678;52.126;20.664;2023-09-12T00:01:40;100047.06;;;18.23;74.42
55759;BME280;41678;52.126;20.664;2023-09-12T00:07:00;100042.75;;;18.21;74.41
55759;BME280;41678;52.126;20.664;2023-09-12T00:12:22;100034.19;;;18.14;74.52
55759;BME280;41678;52.126;20.664;2023-09-12T00:17:42;100044.84;;;18.14;74.65
55759;BME280;41678;52.126;20.664;2023-09-12T00:23:02;100039.03;;;18.06;74.62
55759;BME280;41678;52.126;20.664;2023-09-12T00:28:21;100048.03;;;18.02;74.59
55759;BME280;41678;52.126;20.664;2023-09-12T00:33:41;100048.31;;;17.95;74.62
55759;BME280;41678;52.126;20.664;2023-09-12T00:39:00;100048.47;;;17.92;74.78
55759;BME280;41678;52.126;20.664;2023-09-12T00:44:20;100045.28;;;17.84;74.81
55759;BME280;41678;52.126;20.664;2023-09-12T00:49:39;100050.91;;;17.78;74.52
55759;BME280;41678;52.126;20.664;2023-09-12T00:54:59;100051.06;;;17.75;74.70
55759;BME280;41678;52.126;20.664;2023-09-12T01:00:19;100058.09;;;17.76;75.24
55759;BME280;41678;52.126;20.664;2023-09-12T01:05:41;100041.66;;;17.66;74.73
55759;BME280;41678;52.126;20.664;2023-09-12T01:11:01;100040.16;;;17.60;75.37
55759;BME280;41678;52.126;20.664;2023-09-12T01:16:21;100030.75;;;17.51;75.12
55759;BME280;41678;52.126;20.664;2023-09-12T01:22:02;100036.16;;;17.50;75.00
55759;BME280;41678;52.126;20.664;2023-09-12T01:27:35;100042.56;;;17.46;75.20
55759;BME280;41678;52.126;20.664;2023-09-12T01:32:57;100048.00;;;17.42;75.15
55759;BME280;41678;52.126;20.664;2023-09-12T01:38:16;100048.28;;;17.36;74.59
55759;BME280;41678;52.126;20.664;2023-09-12T01:43:36;100043.16;;;17.32;74.97
55759;BME280;41678;52.126;20.664;2023-09-12T01:48:59;100053.94;;;17.28;74.88
55759;BME280;41678;52.126;20.664;2023-09-12T01:54:20;100050.63;;;17.23;75.16
55759;BME280;41678;52.126;20.664;2023-09-12T01:59:41;100047.38;;;17.17;75.24
55759;BME280;41678;52.126;20.664;2023-09-12T02:05:15;100055.44;;;17.13;75.12
55759;BME280;41678;52.126;20.664;2023-09-12T02:10:38;100053.00;;;17.09;75.51
55759;BME280;41678;52.126;20.664;2023-09-12T02:16:01;100046.00;;;17.06;75.25
55759;BME280;41678;52.126;20.664;2023-09-12T02:21:21;100040.97;;;17.00;75.26
55759;BME280;41678;52.126;20.664;2023-09-12T02:26:41;100039.31;;;16.96;75.58
55759;BME280;41678;52.126;20.664;2023-09-12T02:32:00;100038.66;;;16.91;75.53
55759;BME280;41678;52.126;20.664;2023-09-12T02:37:20;100033.59;;;16.84;75.13
55759;BME280;41678;52.126;20.664;2023-09-12T02:42:40;100042.38;;;16.87;75.37
55759;BME280;41678;52.126;20.664;2023-09-12T02:47:59;100028.66;;;16.75;75.83
55759;BME280;41678;52.126;20.664;2023-09-12T02:53:19;100028.78;;;16.72;75.36
55759;BME280;41678;52.126;20.664;2023-09-12T02:58:38;100042.88;;;16.74;75.41
55759;BME280;41678;52.126;20.664;2023-09-12T03:03:58;100035.97;;;16.70;75.32
55759;BME280;41678;52.126;20.664;2023-09-12T03:09:18;100026.31;;;16.67;75.49
55759;BME280;41678;52.126;20.664;2023-09-12T03:14:38;100030.84;;;16.65;76.02
55759;BME280;41678;52.126;20.664;2023-09-12T03:19:58;100034.59;;;16.60;75.26
55759;BME280;41678;52.126;20.664;2023-09-12T03:25:19;100029.41;;;16.56;75.49
55759;BME280;41678;52.126;20.664;2023-09-12T03:30:39;100037.53;;;16.53;75.49
55759;BME280;41678;52.126;20.664;2023-09-12T03:36:00;100030.66;;;16.48;75.76
55759;BME280;41678;52.126;20.664;2023-09-12T03:41:20;100043.38;;;16.39;75.59
55759;BME280;41678;52.126;20.664;2023-09-12T03:46:44;100045.09;;;16.40;75.19
55759;BME280;41678;52.126;20.664;2023-09-12T03:52:05;100056.59;;;16.41;75.61
55759;BME280;41678;52.126;20.664;2023-09-12T03:57:24;100048.06;;;16.33;75.44
55759;BME280;41678;52.126;20.664;2023-09-12T04:02:45;100052.63;;;16.29;75.46
55759;BME280;41678;52.126;20.664;2023-09-12T04:08:04;100041.38;;;16.22;75.58
55759;BME280;41678;52.126;20.664;2023-09-12T04:13:24;100037.28;;;16.13;75.73
55759;BME280;41678;52.126;20.664;2023-09-12T04:18:44;100042.66;;;16.12;75.64
55759;BME280;41678;52.126;20.664;2023-09-12T04:24:04;100045.22;;;16.15;75.67
55759;BME280;41678;52.126;20.664;2023-09-12T04:29:24;100044.44;;;16.11;75.71
55759;BME280;41678;52.126;20.664;2023-09-12T04:34:44;100044.56;;;16.08;75.47
55759;BME280;41678;52.126;20.664;2023-09-12T04:40:05;100040.16;;;16.09;75.65
55759;BME280;41678;52.126;20.664;2023-09-12T04:45:26;100050.75;;;16.09;75.81
55759;BME280;41678;52.126;20.664;2023-09-12T04:50:46;100056.06;;;16.09;75.60
55759;BME280;41678;52.126;20.664;2023-09-12T04:56:06;100053.41;;;16.09;75.72
55759;BME280;41678;52.126;20.664;2023-09-12T05:01:26;100056.13;;;16.07;75.50
55759;BME280;41678;52.126;20.664;2023-09-12T05:06:46;100048.28;;;16.04;75.64
55759;BME280;41678;52.126;20.664;2023-09-12T05:12:06;100064.84;;;16.11;75.61
55759;BME280;41678;52.126;20.664;2023-09-12T05:17:27;100063.84;;;16.13;75.52
55759;BME280;41678;52.126;20.664;2023-09-12T05:22:47;100069.22;;;16.12;75.75
55759;BME280;41678;52.126;20.664;2023-09-12T05:28:07;100076.03;;;16.19;75.37
55759;BME280;41678;52.126;20.664;2023-09-12T05:33:27;100070.53;;;16.24;75.56
55759;BME280;41678;52.126;20.664;2023-09-12T05:38:47;100058.13;;;16.24;75.47
55759;BME280;41678;52.126;20.664;2023-09-12T05:44:07;100064.81;;;16.35;75.60
55759;BME280;41678;52.126;20.664;2023-09-12T05:49:27;100071.50;;;16.45;75.53
55759;BME280;41678;52.126;20.664;2023-09-12T05:54:47;100079.22;;;16.51;75.61
55759;BME280;41678;52.126;20.664;2023-09-12T06:00:08;100068.53;;;16.53;75.76
55759;BME280;41678;52.126;20.664;2023-09-12T06:05:35;100087.19;;;16.74;75.67
55759;BME280;41678;52.126;20.664;2023-09-12T06:10:55;100083.19;;;16.85;75.87
55759;BME280;41678;52.126;20.664;2023-09-12T06:16:15;100089.84;;;16.96;75.80
55759;BME280;41678;52.126;20.664;2023-09-12T06:21:34;100086.72;;;17.08;75.88
55759;BME280;41678;52.126;20.664;2023-09-12T06:26:54;100092.25;;;17.24;75.65
55759;BME280;41678;52.126;20.664;2023-09-12T06:32:14;100096.97;;;17.38;75.79
55759;BME280;41678;52.126;20.664;2023-09-12T06:37:34;100094.63;;;17.51;75.85
55759;BME280;41678;52.126;20.664;2023-09-12T06:42:53;100104.56;;;17.68;75.99
55759;BME280;41678;52.126;20.664;2023-09-12T06:48:13;100104.00;;;17.81;75.99
55759;BME280;41678;52.126;20.664;2023-09-12T06:53:32;100095.28;;;17.98;76.00
55759;BME280;41678;52.126;20.664;2023-09-12T06:58:57;100098.84;;;18.18;76.04
55759;BME280;41678;52.126;20.664;2023-09-12T07:04:18;100107.84;;;18.34;76.32
55759;BME280;41678;52.126;20.664;2023-09-12T07:09:38;100094.94;;;18.44;76.25
55759;BME280;41678;52.126;20.664;2023-09-12T07:14:57;100091.41;;;18.63;76.44
55759;BME280;41678;52.126;20.664;2023-09-12T07:20:17;100105.28;;;18.89;77.00
55759;BME280;41678;52.126;20.664;2023-09-12T07:25:40;100107.22;;;19.04;76.76
55759;BME280;41678;52.126;20.664;2023-09-12T07:31:00;100108.72;;;19.28;77.06
55759;BME280;41678;52.126;20.664;2023-09-12T07:36:20;100102.28;;;19.49;77.08
55759;BME280;41678;52.126;20.664;2023-09-12T07:41:40;100095.81;;;19.71;77.85
55759;BME280;41678;52.126;20.664;2023-09-12T07:46:59;100104.19;;;19.99;77.70
55759;BME280;41678;52.126;20.664;2023-09-12T07:52:18;100105.78;;;20.19;77.65
55759;BME280;41678;52.126;20.664;2023-09-12T07:57:38;100104.31;;;20.45;78.08
55759;BME280;41678;52.126;20.664;2023-09-12T08:02:57;100097.00;;;20.65;78.13
55759;BME280;41678;52.126;20.664;2023-09-12T08:08:17;100085.09;;;20.87;77.95
55759;BME280;41678;52.126;20.664;2023-09-12T08:13:37;100088.84;;;21.15;78.28
55759;BME280;41678;52.126;20.664;2023-09-12T08:18:56;100100.59;;;21.43;77.92
55759;BME280;41678;52.126;20.664;2023-09-12T08:24:16;100098.19;;;21.69;78.07
55759;BME280;41678;52.126;20.664;2023-09-12T08:29:35;100103.72;;;21.94;78.00
55759;BME280;41678;52.126;20.664;2023-09-12T08:34:55;100104.31;;;22.14;77.89
55759;BME280;41678;52.126;20.664;2023-09-12T08:40:15;100101.22;;;22.35;77.34
55759;BME280;41678;52.126;20.664;2023-09-12T08:45:34;100109.63;;;22.58;77.38
55759;BME280;41678;52.126;20.664;2023-09-12T08:50:54;100112.84;;;22.77;77.41
55759;BME280;41678;52.126;20.664;2023-09-12T08:56:14;100097.44;;;22.94;77.13
55759;BME280;41678;52.126;20.664;2023-09-12T09:01:35;100092.00;;;23.09;77.38
55759;BME280;41678;52.126;20.664;2023-09-12T09:06:54;100105.41;;;23.36;77.36
55759;BME280;41678;52.126;20.664;2023-09-12T09:12:16;100104.44;;;23.50;77.46
55759;BME280;41678;52.126;20.664;2023-09-12T09:17:36;100079.31;;;23.51;77.20
55759;BME280;41678;52.126;20.664;2023-09-12T09:23:03;100087.28;;;23.79;76.06
55759;BME280;41678;52.126;20.664;2023-09-12T09:28:25;100085.03;;;23.85;76.51
55759;BME280;41678;52.126;20.664;2023-09-12T09:33:45;100085.13;;;23.97;76.74
55759;BME280;41678;52.126;20.664;2023-09-12T09:39:10;100070.06;;;24.07;76.06
55759;BME280;41678;52.126;20.664;2023-09-12T09:44:32;100082.31;;;24.24;75.81
55759;BME280;41678;52.126;20.664;2023-09-12T09:49:52;100089.34;;;24.38;75.67
55759;BME280;41678;52.126;20.664;2023-09-12T09:55:14;100078.66;;;24.50;75.49
55759;BME280;41678;52.126;20.664;2023-09-12T10:00:36;100083.66;;;24.67;76.23
55759;BME280;41678;52.126;20.664;2023-09-12T10:05:57;100074.06;;;24.76;76.06
55759;BME280;41678;52.126;20.664;2023-09-12T10:11:24;100066.16;;;24.86;75.19
55759;BME280;41678;52.126;20.664;2023-09-12T10:16:47;100072.47;;;24.98;74.81
55759;BME280;41678;52.126;20.664;2023-09-12T10:22:40;100069.53;;;25.01;74.39
55759;BME280;41678;52.126;20.664;2023-09-12T10:28:05;100083.25;;;25.09;73.88
55759;BME280;41678;52.126;20.664;2023-09-12T10:33:25;100078.50;;;25.13;73.78
55759;BME280;41678;52.126;20.664;2023-09-12T10:38:50;100075.47;;;25.17;73.22
55759;BME280;41678;52.126;20.664;2023-09-12T10:44:15;100073.06;;;25.26;72.24
55759;BME280;41678;52.126;20.664;2023-09-12T10:49:36;100058.22;;;25.20;70.73
55759;BME280;41678;52.126;20.664;2023-09-12T10:54:56;100071.69;;;25.31;71.01
55759;BME280;41678;52.126;20.664;2023-09-12T11:00:16;100051.13;;;25.30;71.44
55759;BME280;41678;52.126;20.664;2023-09-12T11:05:37;100066.22;;;25.44;71.07
55759;BME280;41678;52.126;20.664;2023-09-12T11:11:23;100062.97;;;25.52;70.91
55759;BME280;41678;52.126;20.664;2023-09-12T11:16:43;100055.13;;;25.49;69.21
55759;BME280;41678;52.126;20.664;2023-09-12T11:22:20;100047.78;;;25.51;69.26
55759;BME280;41678;52.126;20.664;2023-09-12T11:33:12;100054.91;;;25.64;69.47
55759;BME280;41678;52.126;20.664;2023-09-12T11:38:32;100035.06;;;25.65;69.82
55759;BME280;41678;52.126;20.664;2023-09-12T11:43:51;100062.00;;;25.76;69.66
55759;BME280;41678;52.126;20.664;2023-09-12T11:49:11;100055.00;;;25.85;68.66
55759;BME280;41678;52.126;20.664;2023-09-12T11:54:32;100048.03;;;25.82;68.06
55759;BME280;41678;52.126;20.664;2023-09-12T11:59:52;100040.69;;;25.84;68.78
55759;BME280;41678;52.126;20.664;2023-09-12T12:05:12;100050.50;;;25.85;68.13
55759;BME280;41678;52.126;20.664;2023-09-12T12:10:32;100058.22;;;25.90;68.03
55759;BME280;41678;52.126;20.664;2023-09-12T12:15:52;100045.22;;;25.84;68.30
55759;BME280;41678;52.126;20.664;2023-09-12T12:21:12;100050.50;;;25.85;68.26
55759;BME280;41678;52.126;20.664;2023-09-12T12:26:32;100039.44;;;25.77;68.78
55759;BME280;41678;52.126;20.664;2023-09-12T12:31:53;100033.22;;;25.77;69.07
55759;BME280;41678;52.126;20.664;2023-09-12T12:37:12;100031.59;;;25.74;69.42
55759;BME280;41678;52.126;20.664;2023-09-12T12:42:34;100034.06;;;25.77;68.99
55759;BME280;41678;52.126;20.664;2023-09-12T12:48:00;100032.34;;;25.76;69.57
55759;BME280;41678;52.126;20.664;2023-09-12T12:53:39;100025.75;;;25.69;68.24
55759;BME280;41678;52.126;20.664;2023-09-12T13:45:54;100014.56;;;25.85;68.44
55759;BME280;41678;52.126;20.664;2023-09-12T13:51:14;100004.66;;;25.85;67.84
55759;BME280;41678;52.126;20.664;2023-09-12T13:56:34;100002.06;;;25.84;67.84
55759;BME280;41678;52.126;20.664;2023-09-12T14:01:55;99993.38;;;25.80;67.53
55759;BME280;41678;52.126;20.664;2023-09-12T14:07:14;99998.38;;;25.85;67.93
55759;BME280;41678;52.126;20.664;2023-09-12T14:12:34;100012.38;;;25.90;67.22
55759;BME280;41678;52.126;20.664;2023-09-12T14:17:54;100000.34;;;25.83;66.34
55759;BME280;41678;52.126;20.664;2023-09-12T14:23:15;99998.75;;;25.92;67.58
55759;BME280;41678;52.126;20.664;2023-09-12T14:28:36;100011.25;;;26.04;66.14
55759;BME280;41678;52.126;20.664;2023-09-12T14:33:55;100004.28;;;26.01;66.63
55759;BME280;41678;52.126;20.664;2023-09-12T14:39:16;100015.91;;;26.13;67.07
55759;BME280;41678;52.126;20.664;2023-09-12T14:44:37;100013.69;;;26.19;64.19
55759;BME280;41678;52.126;20.664;2023-09-12T14:49:57;100014.19;;;26.12;65.77
55759;BME280;41678;52.126;20.664;2023-09-12T14:55:17;100031.13;;;26.26;66.34
55759;BME280;41678;52.126;20.664;2023-09-12T15:00:37;100017.63;;;26.26;66.46
55759;BME280;41678;52.126;20.664;2023-09-12T15:05:57;100026.44;;;26.28;66.53
55759;BME280;41678;52.126;20.664;2023-09-12T15:11:17;100032.31;;;26.22;66.96
55759;BME280;41678;52.126;20.664;2023-09-12T15:16:37;100004.97;;;26.15;66.85
55759;BME280;41678;52.126;20.664;2023-09-12T15:21:57;100014.31;;;26.11;66.82
55759;BME280;41678;52.126;20.664;2023-09-12T15:27:17;100011.25;;;26.04;67.23
55759;BME280;41678;52.126;20.664;2023-09-12T15:32:37;100004.66;;;25.97;68.04
55759;BME280;41678;52.126;20.664;2023-09-12T15:37:56;100016.16;;;25.99;67.57
55759;BME280;41678;52.126;20.664;2023-09-12T15:43:16;100015.19;;;25.88;67.62
55759;BME280;41678;52.126;20.664;2023-09-12T15:48:35;100005.38;;;25.76;67.96
55759;BME280;41678;52.126;20.664;2023-09-12T15:53:55;100018.13;;;25.74;68.67
55759;BME280;41678;52.126;20.664;2023-09-12T15:59:15;100025.50;;;25.72;68.59
55759;BME280;41678;52.126;20.664;2023-09-12T16:04:35;100016.41;;;25.62;69.07
55759;BME280;41678;52.126;20.664;2023-09-12T16:09:55;100006.63;;;25.49;69.34
55759;BME280;41678;52.126;20.664;2023-09-12T16:15:15;100018.56;;;25.45;69.53
55759;BME280;41678;52.126;20.664;2023-09-12T16:20:35;100020.53;;;25.43;69.54
55759;BME280;41678;52.126;20.664;2023-09-12T16:25:54;100002.13;;;25.25;69.94
55759;BME280;41678;52.126;20.664;2023-09-12T16:31:14;100024.78;;;25.23;70.26
55759;BME280;41678;52.126;20.664;2023-09-12T16:44:12;100025.38;;;25.03;70.36
55759;BME280;41678;52.126;20.664;2023-09-12T16:49:37;100017.34;;;24.90;70.57
55759;BME280;41678;52.126;20.664;2023-09-12T16:54:59;100020.13;;;24.78;70.17
55759;BME280;41678;52.126;20.664;2023-09-12T17:00:18;100039.28;;;24.73;70.23
55759;BME280;41678;52.126;20.664;2023-09-12T17:05:38;100034.81;;;24.60;70.43
55759;BME280;41678;52.126;20.664;2023-09-12T17:10:58;100035.50;;;24.51;70.90
55759;BME280;41678;52.126;20.664;2023-09-12T17:16:18;100032.25;;;24.35;70.78
55759;BME280;41678;52.126;20.664;2023-09-12T17:21:42;100029.81;;;24.18;70.91
55759;BME280;41678;52.126;20.664;2023-09-12T17:27:01;100030.69;;;24.06;70.95
55759;BME280;41678;52.126;20.664;2023-09-12T17:32:22;100017.59;;;23.88;71.08
55759;BME280;41678;52.126;20.664;2023-09-12T17:37:43;100040.81;;;23.89;71.04
55759;BME280;41678;52.126;20.664;2023-09-12T17:43:04;100026.22;;;23.68;71.35
55759;BME280;41678;52.126;20.664;2023-09-12T17:48:23;100046.00;;;23.67;70.98
55759;BME280;41678;52.126;20.664;2023-09-12T17:53:43;100035.69;;;23.47;71.08
55759;BME280;41678;52.126;20.664;2023-09-12T17:59:03;100046.84;;;23.41;70.99
55759;BME280;41678;52.126;20.664;2023-09-12T18:04:24;100035.94;;;23.17;71.37
55759;BME280;41678;52.126;20.664;2023-09-12T18:09:45;100047.13;;;23.11;71.17
55759;BME280;41678;52.126;20.664;2023-09-12T18:15:14;100033.97;;;22.93;71.22
55759;BME280;41678;52.126;20.664;2023-09-12T18:20:40;100048.66;;;22.87;71.33
55759;BME280;41678;52.126;20.664;2023-09-12T18:26:00;100038.31;;;22.68;71.21
55759;BME280;41678;52.126;20.664;2023-09-12T18:31:20;100054.41;;;22.68;71.50
55759;BME280;41678;52.126;20.664;2023-09-12T18:44:11;100044.69;;;22.38;71.40
55759;BME280;41678;52.126;20.664;2023-09-12T18:49:31;100043.38;;;22.31;71.47
55759;BME280;41678;52.126;20.664;2023-09-12T18:54:51;100043.00;;;22.22;71.42
55759;BME280;41678;52.126;20.664;2023-09-12T19:00:12;100025.50;;;22.02;71.48
55759;BME280;41678;52.126;20.664;2023-09-12T19:05:35;100046.94;;;22.02;71.75
55759;BME280;41678;52.126;20.664;2023-09-12T19:10:54;100035.41;;;21.87;71.66
55759;BME280;41678;52.126;20.664;2023-09-12T19:16:14;100046.69;;;21.78;71.46
55759;BME280;41678;52.126;20.664;2023-09-12T19:21:35;100046.47;;;21.67;71.84
55759;BME280;41678;52.126;20.664;2023-09-12T19:26:57;100065.91;;;21.70;71.65
55759;BME280;41678;52.126;20.664;2023-09-12T19:32:17;100030.00;;;21.44;71.63
55759;BME280;41678;52.126;20.664;2023-09-12T19:37:36;100033.03;;;21.37;71.52
55759;BME280;41678;52.126;20.664;2023-09-12T19:42:56;100032.66;;;21.29;71.79
55759;BME280;41678;52.126;20.664;2023-09-12T19:48:16;100054.16;;;21.28;71.88
55759;BME280;41678;52.126;20.664;2023-09-12T19:53:36;100062.56;;;21.21;71.84
55759;BME280;41678;52.126;20.664;2023-09-12T19:58:55;100044.63;;;21.07;71.60
55759;BME280;41678;52.126;20.664;2023-09-12T20:04:15;100033.13;;;20.91;72.04
55759;BME280;41678;52.126;20.664;2023-09-12T20:09:35;100039.59;;;20.87;71.98
55759;BME280;41678;52.126;20.664;2023-09-12T20:14:55;100051.59;;;20.79;71.68
55759;BME280;41678;52.126;20.664;2023-09-12T20:20:14;100051.75;;;20.76;72.18
55759;BME280;41678;52.126;20.664;2023-09-12T20:25:39;100033.34;;;20.56;72.02
55759;BME280;41678;52.126;20.664;2023-09-12T20:30:59;100035.31;;;20.52;71.87
55759;BME280;41678;52.126;20.664;2023-09-12T20:36:20;100037.59;;;20.44;72.13
55759;BME280;41678;52.126;20.664;2023-09-12T20:41:40;100037.91;;;20.37;72.04
55759;BME280;41678;52.126;20.664;2023-09-12T20:46:59;100057.31;;;20.41;72.03
55759;BME280;41678;52.126;20.664;2023-09-12T20:52:19;100053.44;;;20.31;72.02
55759;BME280;41678;52.126;20.664;2023-09-12T20:57:39;100046.47;;;20.28;72.07
55759;BME280;41678;52.126;20.664;2023-09-12T21:02:58;100040.84;;;20.17;72.01
55759;BME280;41678;52.126;20.664;2023-09-12T21:08:18;100034.16;;;20.09;72.06
55759;BME280;41678;52.126;20.664;2023-09-12T21:13:39;100025.69;;;20.01;72.04
55759;BME280;41678;52.126;20.664;2023-09-12T21:18:58;100038.25;;;19.99;71.98
55759;BME280;41678;52.126;20.664;2023-09-12T21:24:18;100035.97;;;19.91;72.13
55759;BME280;41678;52.126;20.664;2023-09-12T21:29:40;100034.25;;;19.90;72.14
55759;BME280;41678;52.126;20.664;2023-09-12T21:35:11;100044.16;;;19.88;72.20
55759;BME280;41678;52.126;20.664;2023-09-12T21:40:34;100030.69;;;19.74;72.07
55759;BME280;41678;52.126;20.664;2023-09-12T21:45:54;100036.97;;;19.73;72.29
55759;BME280;41678;52.126;20.664;2023-09-12T21:51:14;100039.56;;;19.74;72.18
55759;BME280;41678;52.126;20.664;2023-09-12T21:56:33;100012.97;;;19.55;72.30
55759;BME280;41678;52.126;20.664;2023-09-12T22:01:53;100033.38;;;19.56;72.50
55759;BME280;41678;52.126;20.664;2023-09-12T22:07:12;100048.94;;;19.65;72.49
55759;BME280;41678;52.126;20.664;2023-09-12T22:12:32;100056.50;;;19.57;72.70
55759;BME280;41678;52.126;20.664;2023-09-12T22:17:52;100057.91;;;19.47;72.49
55759;BME280;41678;52.126;20.664;2023-09-12T22:23:12;100033.03;;;19.29;72.37
55759;BME280;41678;52.126;20.664;2023-09-12T22:28:32;100050.72;;;19.31;72.41
55759;BME280;41678;52.126;20.664;2023-09-12T22:33:51;100045.66;;;19.25;72.51
55759;BME280;41678;52.126;20.664;2023-09-12T22:39:11;100046.00;;;19.19;72.51
55759;BME280;41678;52.126;20.664;2023-09-12T22:44:31;100043.41;;;19.17;72.57
55759;BME280;41678;52.126;20.664;2023-09-12T22:49:51;100052.69;;;19.10;72.81
55759;BME280;41678;52.126;20.664;2023-09-12T22:55:10;100046.06;;;19.00;72.65
55759;BME280;41678;52.126;20.664;2023-09-12T23:00:31;100056.69;;;19.01;72.59
55759;BME280;41678;52.126;20.664;2023-09-12T23:05:50;100044.63;;;18.92;72.60
55759;BME280;41678;52.126;20.664;2023-09-12T23:11:10;100029.19;;;18.81;72.64
55759;BME280;41678;52.126;20.664;2023-09-12T23:16:30;100028.53;;;18.76;72.87
55759;BME280;41678;52.126;20.664;2023-09-12T23:21:51;100038.25;;;18.77;73.05
55759;BME280;41678;52.126;20.664;2023-09-12T23:27:12;100026.41;;;18.65;72.69
55759;BME280;41678;52.126;20.664;2023-09-12T23:32:32;100027.41;;;18.63;72.83
55759;BME280;41678;52.126;20.664;2023-09-12T23:37:52;100025.00;;;18.58;72.75
55759;BME280;41678;52.126;20.664;2023-09-12T23:43:12;100010.44;;;18.46;72.60
55759;BME280;41678;52.126;20.664;2023-09-12T23:48:32;100024.56;;;18.48;72.81
55759;BME280;41678;52.126;20.664;2023-09-12T23:53:52;100019.59;;;18.40;72.67
55759;BME280;41678;52.126;20.664;2023-09-12T23:59:12;100008.53;;;18.31;72.63
